createdAt,value
2022-12-23T00:01:33.035Z,129.50
2022-12-23T00:04:50.157Z,112.30
2022-12-23T00:10:16.986Z,175.20
2022-12-23T00:11:30.803Z,171.50
2022-12-23T00:18:16.870Z,118.10
2022-12-23T00:19:12.680Z,119.20
2022-12-23T00:21:47.671Z,167.40
2022-12-23T00:23:40.917Z,125.70
2022-12-23T00:28:15.512Z,171.00
2022-12-23T00:29:17.041Z,167.20
2022-12-23T00:30:12.892Z,168.70
2022-12-23T00:31:15.172Z,191.00
2022-12-23T00:34:41.417Z,173.70
2022-12-23T00:45:52.381Z,223.20
2022-12-23T00:48:04.128Z,170.60
2022-12-23T00:50:06.550Z,180.10
2022-12-23T00:52:20.619Z,185.50
2022-12-23T00:53:51.581Z,186.70
2022-12-23T00:54:17.885Z,192.60
2022-12-23T00:56:48.298Z,232.20
2022-12-23T00:59:28.528Z,177.20
2022-12-23T01:03:43.927Z,169.30
2022-12-23T01:05:07.350Z,168.50
2022-12-23T01:06:06.084Z,213.00
2022-12-23T01:11:30.439Z,162.40
2022-12-23T01:14:06.595Z,173.50
2022-12-23T01:15:04.185Z,174.70
2022-12-23T01:22:27.718Z,162.00
2022-12-23T01:23:07.492Z,165.30
2022-12-23T01:25:30.877Z,286.50
2022-12-23T01:27:31.601Z,132.40
2022-12-23T01:28:36.214Z,131.90
2022-12-23T01:29:38.950Z,139.30
2022-12-23T01:31:05.208Z,138.50
2022-12-23T01:31:41.638Z,146.10
2022-12-23T01:32:34.788Z,147.40
2022-12-23T01:36:26.730Z,143.50
2022-12-23T01:38:36.799Z,154.20
2022-12-23T01:39:40.657Z,157.40
2022-12-23T01:40:39.456Z,150.50
2022-12-23T01:41:35.960Z,158.10
2022-12-23T01:48:25.982Z,163.20
2022-12-23T01:54:44.459Z,305.10
2022-12-23T01:55:25.829Z,305.60
2022-12-23T01:58:46.784Z,167.40
2022-12-23T02:00:03.137Z,169.90
2022-12-23T02:01:16.500Z,161.90
2022-12-23T02:01:44.231Z,178.30
2022-12-23T02:03:06.061Z,162.50
2022-12-23T02:05:01.166Z,313.10
2022-12-23T02:05:59.278Z,310.70
2022-12-23T02:07:18.991Z,341.30
2022-12-23T02:08:00.119Z,263.00
2022-12-23T02:08:58.751Z,145.60
2022-12-23T02:09:58.290Z,159.10
2022-12-23T02:13:54.978Z,173.30
2022-12-23T02:15:37.529Z,345.00
2022-12-23T02:16:34.201Z,334.30
2022-12-23T02:17:41.488Z,387.80
2022-12-23T02:18:43.691Z,156.90
2022-12-23T02:23:14.348Z,192.00
2022-12-23T02:24:14.986Z,193.70
2022-12-23T02:25:10.896Z,193.80
2022-12-23T02:26:13.734Z,302.60
2022-12-23T02:27:12.254Z,300.80
2022-12-23T02:28:22.762Z,177.90
2022-12-23T02:29:15.253Z,173.80
2022-12-23T02:30:20.001Z,198.70
2022-12-23T02:32:48.138Z,196.70
2022-12-23T02:33:54.813Z,197.50
2022-12-23T02:34:31.948Z,198.20
2022-12-23T02:35:26.181Z,201.00
2022-12-23T02:36:23.244Z,208.70
2022-12-23T02:37:43.120Z,167.80
2022-12-23T02:38:33.068Z,199.80
2022-12-23T02:39:30.670Z,186.90
2022-12-23T02:40:26.222Z,196.00
2022-12-23T02:41:22.163Z,165.00
2022-12-23T02:42:21.230Z,170.60
2022-12-23T02:43:24.771Z,179.10
2022-12-23T02:44:25.280Z,189.90
2022-12-23T02:45:26.790Z,179.70
2022-12-23T02:46:48.172Z,167.30
2022-12-23T02:47:31.696Z,157.70
2022-12-23T02:48:24.927Z,157.40
2022-12-23T02:49:21.095Z,153.50
2022-12-23T02:50:23.150Z,149.40
2022-12-23T02:51:23.630Z,140.50
2022-12-23T02:52:25.330Z,144.20
2022-12-23T02:53:22.036Z,154.30
2022-12-23T02:54:21.847Z,140.80
2022-12-23T02:55:21.032Z,129.40
2022-12-23T02:56:22.568Z,141.10
2022-12-23T02:57:20.941Z,139.40
2022-12-23T02:58:21.729Z,136.00
2022-12-23T02:59:25.161Z,130.50
2022-12-23T03:00:23.272Z,131.80
2022-12-23T03:01:22.969Z,140.30
2022-12-23T03:02:21.023Z,127.80
2022-12-23T03:03:21.153Z,137.90
2022-12-23T03:04:20.791Z,142.60
2022-12-23T03:05:20.869Z,125.00
2022-12-23T03:06:20.790Z,133.70
2022-12-23T03:07:20.783Z,128.20
2022-12-23T03:08:20.771Z,132.50
2022-12-23T03:09:20.752Z,126.60
2022-12-23T03:10:20.712Z,127.00
2022-12-23T03:11:20.859Z,127.10
2022-12-23T03:12:20.679Z,122.40
2022-12-23T03:13:20.725Z,131.60
2022-12-23T03:14:20.686Z,133.70
2022-12-23T03:15:20.683Z,142.60
2022-12-23T03:16:20.775Z,141.50
2022-12-23T03:17:20.691Z,124.80
2022-12-23T03:18:20.612Z,129.70
2022-12-23T03:19:20.639Z,131.40
2022-12-23T03:20:20.608Z,125.00
2022-12-23T03:21:20.591Z,131.50
2022-12-23T03:22:20.553Z,133.50
2022-12-23T03:23:20.623Z,122.80
2022-12-23T03:24:20.513Z,137.00
2022-12-23T03:25:20.561Z,131.30
2022-12-23T03:26:20.528Z,132.40
2022-12-23T03:27:20.518Z,131.70
2022-12-23T03:28:20.498Z,133.90
2022-12-23T03:29:20.513Z,128.70
2022-12-23T03:30:20.454Z,131.90
2022-12-23T03:31:20.571Z,123.30
2022-12-23T03:32:20.429Z,123.40
2022-12-23T03:33:20.473Z,119.90
2022-12-23T03:34:20.413Z,120.80
2022-12-23T03:35:20.516Z,116.80
2022-12-23T03:36:20.359Z,121.30
2022-12-23T03:37:20.404Z,118.60
2022-12-23T03:38:20.355Z,123.80
2022-12-23T03:39:20.342Z,115.80
2022-12-23T03:40:20.360Z,111.70
2022-12-23T03:41:20.359Z,115.30
2022-12-23T03:42:20.284Z,118.00
2022-12-23T03:43:20.331Z,113.10
2022-12-23T03:44:20.250Z,102.50
2022-12-23T03:45:38.288Z,107.80
2022-12-23T03:46:21.451Z,113.00
2022-12-23T03:47:20.243Z,108.50
2022-12-23T03:48:20.238Z,110.00
2022-12-23T03:49:20.219Z,102.30
2022-12-23T03:50:20.203Z,109.70
2022-12-23T03:51:20.224Z,110.10
2022-12-23T03:52:21.735Z,114.40
2022-12-23T03:53:20.167Z,113.90
2022-12-23T03:54:20.128Z,114.20
2022-12-23T03:55:20.179Z,108.20
2022-12-23T03:56:20.092Z,108.30
2022-12-23T03:57:20.141Z,107.90
2022-12-23T03:58:20.226Z,112.50
2022-12-23T03:59:20.094Z,113.80
2022-12-23T04:00:20.070Z,113.40
2022-12-23T04:01:20.096Z,99.80
2022-12-23T04:02:20.128Z,107.20
2022-12-23T04:03:20.052Z,100.90
2022-12-23T04:04:20.079Z,100.00
2022-12-23T04:05:20.040Z,102.80
2022-12-23T04:06:19.993Z,105.00
2022-12-23T04:07:19.990Z,92.30
2022-12-23T04:08:19.971Z,94.00
2022-12-23T04:09:22.220Z,94.30
2022-12-23T04:10:20.029Z,91.50
2022-12-23T04:11:19.955Z,97.40
2022-12-23T04:12:19.888Z,99.90
2022-12-23T04:13:19.923Z,102.60
2022-12-23T04:14:19.897Z,102.00
2022-12-23T04:15:20.606Z,110.10
2022-12-23T04:16:20.042Z,104.30
2022-12-23T04:17:19.855Z,103.10
2022-12-23T04:18:19.816Z,104.10
2022-12-23T04:19:19.933Z,103.10
2022-12-23T04:20:19.790Z,107.60
2022-12-23T04:21:19.818Z,105.60
2022-12-23T04:22:19.823Z,104.90
2022-12-23T04:23:19.772Z,107.00
2022-12-23T04:24:19.723Z,106.00
2022-12-23T04:25:19.774Z,106.40
2022-12-23T04:26:19.726Z,107.80
2022-12-23T04:27:19.711Z,107.10
2022-12-23T04:28:19.819Z,111.20
2022-12-23T04:29:19.705Z,117.40
2022-12-23T04:30:19.657Z,108.30
2022-12-23T04:31:19.740Z,118.10
2022-12-23T04:32:19.628Z,109.10
2022-12-23T04:33:19.662Z,115.80
2022-12-23T04:34:19.759Z,120.70
2022-12-23T04:35:19.610Z,119.40
2022-12-23T04:36:19.603Z,117.80
2022-12-23T04:37:19.592Z,120.50
2022-12-23T04:38:19.552Z,126.00
2022-12-23T04:39:19.588Z,126.20
2022-12-23T04:40:19.650Z,128.40
2022-12-23T04:41:19.526Z,131.70
2022-12-23T04:42:19.506Z,137.60
2022-12-23T04:43:19.548Z,130.90
2022-12-23T04:44:19.465Z,130.00
2022-12-23T04:45:19.506Z,128.80
2022-12-23T04:46:19.642Z,125.70
2022-12-23T04:47:19.451Z,121.10
2022-12-23T04:48:19.440Z,121.10
2022-12-23T04:49:19.426Z,126.20
2022-12-23T04:50:19.386Z,125.30
2022-12-23T04:51:19.441Z,128.60
2022-12-23T04:52:19.413Z,130.40
2022-12-23T04:53:19.396Z,124.90
2022-12-23T04:54:19.355Z,125.10
2022-12-23T04:55:19.360Z,133.30
2022-12-23T04:56:19.300Z,127.80
2022-12-23T04:57:19.346Z,131.90
2022-12-23T04:58:19.340Z,134.80
2022-12-23T04:59:19.294Z,142.80
2022-12-23T05:00:19.277Z,134.60
2022-12-23T05:01:19.334Z,128.90
2022-12-23T05:02:19.309Z,135.50
2022-12-23T05:03:19.348Z,140.10
2022-12-23T05:04:19.257Z,144.70
2022-12-23T05:05:19.255Z,150.70
2022-12-23T05:06:19.206Z,145.10
2022-12-23T05:07:19.183Z,152.10
2022-12-23T05:08:19.180Z,155.30
2022-12-23T05:09:19.167Z,155.60
2022-12-23T05:10:19.144Z,149.50
2022-12-23T05:11:19.159Z,152.30
2022-12-23T05:12:19.117Z,152.60
2022-12-23T05:13:19.135Z,159.10
2022-12-23T05:14:19.095Z,163.50
2022-12-23T05:15:19.086Z,167.90
2022-12-23T05:16:19.147Z,174.00
2022-12-23T05:17:19.054Z,174.10
2022-12-23T05:18:19.014Z,167.50
2022-12-23T05:19:19.071Z,169.40
2022-12-23T05:20:19.028Z,159.80
2022-12-23T05:21:19.030Z,180.40
2022-12-23T05:22:19.110Z,171.10
2022-12-23T05:23:18.976Z,178.20
2022-12-23T05:24:18.965Z,166.20
2022-12-23T05:25:18.950Z,169.60
2022-12-23T05:26:18.907Z,170.90
2022-12-23T05:27:18.962Z,172.60
2022-12-23T05:28:19.042Z,163.10
2022-12-23T05:29:18.905Z,167.50
2022-12-23T05:30:18.867Z,167.40
2022-12-23T05:31:18.932Z,172.00
2022-12-23T05:32:18.834Z,159.00
2022-12-23T05:33:18.899Z,158.90
2022-12-23T05:34:19.012Z,170.00
2022-12-23T05:35:18.801Z,180.20
2022-12-23T05:36:18.805Z,174.50
2022-12-23T05:37:18.805Z,174.10
2022-12-23T05:38:18.782Z,174.50
2022-12-23T05:39:18.811Z,175.30
2022-12-23T05:40:23.450Z,176.80
2022-12-23T05:41:19.759Z,167.80
2022-12-23T05:42:18.717Z,178.50
2022-12-23T05:43:18.738Z,183.20
2022-12-23T05:44:18.681Z,177.50
2022-12-23T05:45:18.717Z,190.00
2022-12-23T05:46:25.989Z,186.90
2022-12-23T05:47:19.667Z,180.50
2022-12-23T05:48:18.650Z,186.00
2022-12-23T05:49:18.634Z,193.20
2022-12-23T05:50:18.597Z,193.20
2022-12-23T05:51:18.622Z,183.70
2022-12-23T05:52:18.691Z,195.20
2022-12-23T05:53:18.611Z,192.60
2022-12-23T05:54:18.551Z,191.70
2022-12-23T05:55:18.544Z,198.20
2022-12-23T05:56:18.521Z,189.30
2022-12-23T05:57:18.524Z,195.40
2022-12-23T05:58:18.524Z,203.10
2022-12-23T05:59:18.524Z,199.90
2022-12-23T06:00:18.484Z,192.50
2022-12-23T06:01:18.485Z,203.90
2022-12-23T06:02:18.565Z,200.20
2022-12-23T06:03:18.655Z,204.40
2022-12-23T06:04:18.542Z,214.00
2022-12-23T06:05:18.462Z,202.80
2022-12-23T06:06:18.429Z,195.00
2022-12-23T06:07:18.408Z,206.10
2022-12-23T06:08:18.377Z,211.10
2022-12-23T06:09:18.380Z,212.10
2022-12-23T06:10:18.360Z,209.40
2022-12-23T06:11:18.375Z,216.30
2022-12-23T06:12:18.309Z,208.00
2022-12-23T06:13:18.355Z,217.30
2022-12-23T06:14:21.399Z,208.20
2022-12-23T06:15:19.399Z,208.90
2022-12-23T06:16:18.320Z,205.20
2022-12-23T06:17:18.264Z,207.70
2022-12-23T06:18:18.296Z,224.70
2022-12-23T06:19:18.202Z,216.80
2022-12-23T06:20:20.970Z,210.50
2022-12-23T06:21:18.198Z,221.60
2022-12-23T06:22:18.203Z,235.70
2022-12-23T06:23:18.188Z,233.20
2022-12-23T06:24:18.184Z,234.80
2022-12-23T06:25:18.169Z,237.00
2022-12-23T06:26:18.520Z,228.20
2022-12-23T06:27:18.121Z,214.80
2022-12-23T06:28:18.143Z,228.50
2022-12-23T06:29:18.888Z,222.80
2022-12-23T06:30:50.783Z,218.00
2022-12-23T06:31:18.118Z,233.20
2022-12-23T06:32:18.182Z,239.60
2022-12-23T06:33:18.184Z,228.00
2022-12-23T06:34:18.048Z,236.40
2022-12-23T06:35:18.043Z,253.80
2022-12-23T06:36:18.036Z,252.70
2022-12-23T06:37:18.057Z,256.90
2022-12-23T06:38:18.034Z,257.50
2022-12-23T06:39:18.013Z,277.10
2022-12-23T06:40:18.017Z,279.60
2022-12-23T06:41:17.954Z,273.20
2022-12-23T06:42:17.942Z,270.50
2022-12-23T06:43:17.924Z,328.50
2022-12-23T06:44:17.907Z,360.80
2022-12-23T06:45:17.930Z,280.70
2022-12-23T06:46:17.990Z,232.30
2022-12-23T06:47:17.875Z,249.30
2022-12-23T06:48:17.878Z,263.50
2022-12-23T06:49:17.830Z,338.90
2022-12-23T06:50:17.887Z,374.10
2022-12-23T06:51:17.833Z,243.20
2022-12-23T06:52:17.836Z,275.00
2022-12-23T06:53:17.791Z,298.20
2022-12-23T06:54:17.780Z,234.00
2022-12-23T06:55:17.790Z,199.30
2022-12-23T06:56:17.749Z,288.00
2022-12-23T06:57:17.851Z,261.60
2022-12-23T06:58:17.756Z,210.30
2022-12-23T06:59:17.683Z,222.10
2022-12-23T07:00:17.720Z,222.70
2022-12-23T07:01:17.724Z,224.20
2022-12-23T07:02:17.850Z,254.50
2022-12-23T07:03:17.841Z,261.30
2022-12-23T07:04:17.694Z,252.70
2022-12-23T07:05:17.629Z,262.00
2022-12-23T07:06:17.620Z,273.40
2022-12-23T07:07:17.602Z,243.40
2022-12-23T07:08:17.609Z,215.30
2022-12-23T07:09:17.670Z,238.90
2022-12-23T07:10:17.622Z,222.30
2022-12-23T07:11:17.537Z,215.10
2022-12-23T07:12:17.570Z,222.90
2022-12-23T07:13:17.513Z,227.40
2022-12-23T07:14:17.542Z,192.20
2022-12-23T07:15:17.543Z,216.60
2022-12-23T07:16:17.567Z,215.60
2022-12-23T07:17:17.467Z,216.40
2022-12-23T07:18:17.491Z,194.70
2022-12-23T07:19:17.435Z,219.30
2022-12-23T07:20:17.486Z,226.00
2022-12-23T07:21:26.531Z,204.80
2022-12-23T07:22:18.432Z,217.30
2022-12-23T07:23:17.403Z,199.90
2022-12-23T07:24:17.396Z,205.80
2022-12-23T07:25:17.368Z,229.40
2022-12-23T07:26:17.378Z,228.10
2022-12-23T07:27:17.352Z,244.30
2022-12-23T07:28:17.356Z,241.70
2022-12-23T07:29:17.322Z,235.40
2022-12-23T07:30:17.315Z,250.90
2022-12-23T07:31:17.311Z,230.40
2022-12-23T07:32:17.278Z,258.10
2022-12-23T07:33:17.282Z,247.80
2022-12-23T07:34:17.276Z,219.70
2022-12-23T07:35:17.228Z,218.40
2022-12-23T07:36:17.240Z,222.40
2022-12-23T07:37:17.194Z,236.90
2022-12-23T07:38:17.227Z,256.80
2022-12-23T07:39:17.191Z,238.70
2022-12-23T07:40:17.198Z,231.80
2022-12-23T07:41:17.162Z,198.00
2022-12-23T07:42:43.626Z,206.20
2022-12-23T07:43:18.139Z,206.20
2022-12-23T07:44:17.147Z,213.20
2022-12-23T07:45:17.191Z,240.70
2022-12-23T07:46:17.194Z,211.30
2022-12-23T07:47:17.070Z,208.40
2022-12-23T07:48:17.099Z,210.40
2022-12-23T07:49:17.069Z,209.50
2022-12-23T07:50:17.046Z,195.40
2022-12-23T07:51:17.050Z,227.00
2022-12-23T07:52:17.065Z,219.30
2022-12-23T07:53:17.007Z,216.20
2022-12-23T07:54:16.993Z,230.30
2022-12-23T07:55:16.975Z,190.60
2022-12-23T07:56:16.971Z,222.30
2022-12-23T07:57:17.195Z,241.00
2022-12-23T07:58:16.961Z,251.20
2022-12-23T07:59:16.909Z,240.50
2022-12-23T08:00:16.963Z,255.50
2022-12-23T08:01:16.965Z,259.60
2022-12-23T08:02:17.083Z,315.30
2022-12-23T08:03:17.081Z,314.90
2022-12-23T08:04:16.877Z,250.10
2022-12-23T08:05:16.982Z,202.70
2022-12-23T08:06:16.932Z,215.30
2022-12-23T08:07:16.834Z,213.90
2022-12-23T08:08:16.800Z,208.70
2022-12-23T08:09:16.788Z,224.90
2022-12-23T08:10:16.834Z,237.30
2022-12-23T08:11:16.753Z,240.40
2022-12-23T08:12:16.792Z,258.30
2022-12-23T08:13:16.757Z,267.70
2022-12-23T08:14:16.720Z,260.30
2022-12-23T08:15:16.746Z,260.50
2022-12-23T08:16:16.741Z,252.80
2022-12-23T08:17:16.895Z,245.40
2022-12-23T08:18:16.686Z,250.10
2022-12-23T08:19:16.643Z,255.70
2022-12-23T08:20:16.679Z,244.00
2022-12-23T08:21:16.681Z,242.90
2022-12-23T08:22:16.631Z,242.60
2022-12-23T08:23:20.000Z,245.50
2022-12-23T08:24:17.614Z,242.20
2022-12-23T08:25:16.602Z,253.70
2022-12-23T08:26:16.606Z,253.80
2022-12-23T08:27:16.552Z,248.60
2022-12-23T08:28:16.562Z,251.40
2022-12-23T08:29:16.542Z,251.60
2022-12-23T08:30:16.518Z,248.50
2022-12-23T08:31:16.598Z,245.00
2022-12-23T08:32:16.485Z,260.80
2022-12-23T08:33:16.467Z,260.20
2022-12-23T08:34:16.494Z,256.80
2022-12-23T08:35:16.436Z,255.70
2022-12-23T08:36:22.409Z,248.20
2022-12-23T08:37:17.429Z,239.50
2022-12-23T08:38:16.407Z,239.00
2022-12-23T08:39:16.501Z,242.50
2022-12-23T08:40:16.414Z,233.10
2022-12-23T08:41:16.373Z,224.10
2022-12-23T08:42:16.378Z,242.60
2022-12-23T08:43:16.337Z,246.20
2022-12-23T08:44:16.330Z,235.90
2022-12-23T08:45:16.437Z,227.00
2022-12-23T08:46:16.365Z,231.40
2022-12-23T08:47:18.996Z,230.00
2022-12-23T08:48:16.327Z,213.20
2022-12-23T08:49:16.289Z,216.90
2022-12-23T08:50:16.265Z,223.70
2022-12-23T08:51:16.354Z,229.30
2022-12-23T08:52:16.240Z,225.00
2022-12-23T08:53:16.194Z,212.30
2022-12-23T08:54:16.231Z,230.70
2022-12-23T08:55:16.207Z,206.00
2022-12-23T08:56:16.167Z,222.30
2022-12-23T08:57:16.266Z,220.40
2022-12-23T08:58:16.181Z,223.20
2022-12-23T08:59:19.142Z,214.90
2022-12-23T09:00:16.143Z,236.50
2022-12-23T09:01:16.171Z,243.00
2022-12-23T09:02:16.269Z,217.90
2022-12-23T09:03:16.346Z,223.80
2022-12-23T09:04:16.080Z,220.50
2022-12-23T09:05:16.102Z,238.50
2022-12-23T09:06:16.068Z,210.70
2022-12-23T09:07:16.002Z,225.70
2022-12-23T09:08:16.049Z,199.20
2022-12-23T09:09:16.107Z,211.70
2022-12-23T09:10:16.010Z,230.80
2022-12-23T09:11:15.957Z,232.80
2022-12-23T09:12:15.989Z,269.00
2022-12-23T09:13:24.941Z,228.50
2022-12-23T09:14:17.074Z,219.20
2022-12-23T09:15:15.946Z,210.50
2022-12-23T09:16:15.945Z,199.70
2022-12-23T09:17:15.880Z,182.00
2022-12-23T09:18:15.929Z,182.20
2022-12-23T09:19:15.845Z,216.60
2022-12-23T09:20:15.914Z,205.90
2022-12-23T09:21:15.861Z,200.60
2022-12-23T09:22:15.835Z,207.90
2022-12-23T09:23:15.824Z,202.40
2022-12-23T09:24:15.811Z,198.10
2022-12-23T09:25:15.785Z,207.20
2022-12-23T09:26:15.930Z,244.90
2022-12-23T09:27:15.753Z,237.60
2022-12-23T09:28:15.788Z,244.50
2022-12-23T09:29:15.740Z,242.10
2022-12-23T09:30:15.724Z,231.30
2022-12-23T09:31:15.757Z,230.10
2022-12-23T09:32:15.726Z,229.40
2022-12-23T09:33:15.657Z,233.80
2022-12-23T09:34:15.682Z,227.80
2022-12-23T09:35:15.610Z,241.30
2022-12-23T09:36:15.647Z,249.30
2022-12-23T09:37:15.603Z,242.70
2022-12-23T09:38:15.707Z,249.30
2022-12-23T09:39:15.578Z,241.10
2022-12-23T09:40:15.572Z,240.30
2022-12-23T09:41:15.535Z,235.60
2022-12-23T09:42:15.570Z,216.60
2022-12-23T09:43:15.533Z,210.60
2022-12-23T09:44:15.551Z,209.90
2022-12-23T09:45:15.473Z,210.30
2022-12-23T09:46:15.550Z,207.80
2022-12-23T09:47:15.453Z,215.90
2022-12-23T09:48:15.489Z,217.40
2022-12-23T09:49:15.447Z,218.20
2022-12-23T09:50:15.541Z,214.80
2022-12-23T09:51:15.419Z,226.90
2022-12-23T09:52:15.411Z,224.40
2022-12-23T09:53:15.380Z,221.90
2022-12-23T09:54:17.402Z,222.70
2022-12-23T09:55:15.340Z,228.70
2022-12-23T09:56:15.489Z,209.30
2022-12-23T09:57:15.342Z,212.70
2022-12-23T09:58:15.335Z,211.60
2022-12-23T09:59:15.286Z,210.30
2022-12-23T10:00:15.356Z,214.30
2022-12-23T10:01:15.374Z,191.10
2022-12-23T10:02:15.450Z,180.10
2022-12-23T10:03:15.542Z,196.10
2022-12-23T10:04:15.289Z,214.60
2022-12-23T10:05:15.213Z,193.20
2022-12-23T10:06:15.252Z,195.00
2022-12-23T10:07:15.187Z,220.10
2022-12-23T10:08:15.255Z,216.70
2022-12-23T10:09:15.184Z,192.30
2022-12-23T10:10:15.171Z,209.30
2022-12-23T10:11:15.158Z,208.30
2022-12-23T10:12:15.149Z,213.30
2022-12-23T10:13:15.098Z,213.60
2022-12-23T10:14:15.175Z,214.10
2022-12-23T10:15:15.168Z,216.90
2022-12-23T10:16:15.119Z,216.70
2022-12-23T10:17:15.056Z,219.20
2022-12-23T10:18:15.088Z,197.70
2022-12-23T10:19:15.020Z,226.90
2022-12-23T10:20:15.099Z,223.60
2022-12-23T10:21:15.797Z,203.20
2022-12-23T10:22:15.013Z,185.60
2022-12-23T10:23:15.004Z,183.50
2022-12-23T10:24:14.983Z,157.00
2022-12-23T10:25:14.941Z,185.00
2022-12-23T10:26:15.021Z,192.70
2022-12-23T10:27:14.912Z,167.80
2022-12-23T10:28:14.957Z,191.70
2022-12-23T10:29:18.703Z,166.80
2022-12-23T10:30:42.443Z,212.60
2022-12-23T10:31:40.412Z,175.00
2022-12-23T10:32:15.948Z,178.80
2022-12-23T10:33:14.891Z,169.10
2022-12-23T10:34:14.816Z,188.60
2022-12-23T10:35:14.861Z,183.00
2022-12-23T10:36:14.910Z,179.30
2022-12-23T10:37:14.842Z,167.70
2022-12-23T10:38:14.792Z,183.80
2022-12-23T10:39:14.775Z,192.80
2022-12-23T10:40:14.763Z,174.40
2022-12-23T10:41:14.781Z,175.10
2022-12-23T10:42:14.721Z,166.00
2022-12-23T10:43:14.797Z,183.20
2022-12-23T10:44:14.699Z,149.70
2022-12-23T10:45:14.701Z,154.70
2022-12-23T10:46:14.714Z,151.50
2022-12-23T10:47:14.705Z,146.10
2022-12-23T10:48:14.640Z,149.90
2022-12-23T10:49:14.680Z,152.30
2022-12-23T10:50:14.629Z,147.00
2022-12-23T10:51:14.625Z,148.40
2022-12-23T10:52:14.607Z,155.90
2022-12-23T10:53:14.624Z,149.50
2022-12-23T10:54:14.550Z,145.90
2022-12-23T10:55:14.713Z,149.60
2022-12-23T10:56:14.529Z,147.80
2022-12-23T10:57:14.547Z,150.10
2022-12-23T10:58:14.553Z,146.30
2022-12-23T10:59:14.511Z,140.90
2022-12-23T11:00:14.497Z,139.30
2022-12-23T11:01:22.044Z,142.20
2022-12-23T11:02:15.555Z,143.40
2022-12-23T11:03:14.530Z,145.70
2022-12-23T11:04:14.446Z,143.70
2022-12-23T11:05:14.466Z,142.10
2022-12-23T11:06:14.395Z,149.10
2022-12-23T11:08:15.369Z,140.90
2022-12-23T11:09:14.379Z,143.90
2022-12-23T11:10:14.369Z,143.00
2022-12-23T11:11:14.355Z,135.90
2022-12-23T11:12:14.342Z,140.90
2022-12-23T11:13:14.472Z,146.30
2022-12-23T11:14:14.292Z,140.80
2022-12-23T11:15:14.333Z,130.90
2022-12-23T11:16:14.319Z,129.10
2022-12-23T11:17:14.280Z,145.60
2022-12-23T11:18:14.291Z,164.10
2022-12-23T11:19:14.309Z,158.60
2022-12-23T11:20:14.223Z,147.00
2022-12-23T11:21:14.226Z,146.20
2022-12-23T11:22:14.213Z,137.40
2022-12-23T11:23:14.197Z,135.00
2022-12-23T11:24:14.212Z,144.30
2022-12-23T11:25:14.224Z,138.10
2022-12-23T11:26:14.172Z,139.70
2022-12-23T11:27:14.196Z,131.90
2022-12-23T11:28:14.108Z,120.00
2022-12-23T11:29:14.115Z,137.90
2022-12-23T11:30:14.183Z,119.90
2022-12-23T11:31:14.272Z,121.90
2022-12-23T11:32:14.092Z,136.70
2022-12-23T11:33:14.093Z,114.70
2022-12-23T11:34:14.028Z,121.10
2022-12-23T11:35:14.096Z,118.00
2022-12-23T11:36:14.022Z,117.10
2022-12-23T11:37:14.031Z,116.00
2022-12-23T11:38:13.998Z,130.50
2022-12-23T11:39:13.987Z,126.90
2022-12-23T11:40:13.976Z,125.50
2022-12-23T11:41:13.980Z,126.50
2022-12-23T11:42:13.920Z,116.90
2022-12-23T11:43:14.083Z,114.80
2022-12-23T11:44:13.885Z,115.60
2022-12-23T11:45:13.906Z,123.70
2022-12-23T11:46:13.966Z,121.70
2022-12-23T11:47:13.876Z,111.60
2022-12-23T11:48:13.861Z,117.50
2022-12-23T11:49:13.908Z,118.60
2022-12-23T11:50:13.841Z,107.40
2022-12-23T11:51:13.826Z,108.80
2022-12-23T11:52:13.812Z,109.90
2022-12-23T11:53:13.816Z,108.80
2022-12-23T11:54:13.753Z,107.00
2022-12-23T11:55:13.910Z,105.90
2022-12-23T11:56:13.733Z,108.30
2022-12-23T11:57:13.823Z,107.70
2022-12-23T11:58:13.723Z,107.90
2022-12-23T11:59:13.719Z,115.80
2022-12-23T12:00:13.704Z,113.20
2022-12-23T12:01:13.834Z,109.60
2022-12-23T12:02:13.686Z,119.40
2022-12-23T12:03:13.708Z,129.00
2022-12-23T12:04:13.625Z,134.10
2022-12-23T12:05:13.628Z,120.00
2022-12-23T12:06:13.616Z,112.70
2022-12-23T12:07:13.743Z,117.40
2022-12-23T12:08:13.566Z,116.90
2022-12-23T12:09:13.581Z,115.30
2022-12-23T12:10:13.587Z,108.60
2022-12-23T12:11:13.553Z,105.90
2022-12-23T12:12:13.545Z,109.00
2022-12-23T12:13:13.593Z,113.80
2022-12-23T12:14:13.482Z,114.50
2022-12-23T12:15:13.528Z,120.50
2022-12-23T12:16:13.506Z,114.80
2022-12-23T12:17:13.518Z,120.50
2022-12-23T12:18:13.473Z,118.50
2022-12-23T12:19:13.482Z,123.60
2022-12-23T12:20:13.443Z,122.70
2022-12-23T12:21:13.450Z,121.80
2022-12-23T12:22:13.374Z,119.00
2022-12-23T12:23:13.395Z,115.80
2022-12-23T12:24:18.961Z,119.40
2022-12-23T12:25:14.425Z,123.10
2022-12-23T12:26:13.324Z,122.70
2022-12-23T12:27:13.372Z,119.40
2022-12-23T12:28:13.318Z,119.30
2022-12-23T12:29:13.327Z,120.80
2022-12-23T12:30:13.343Z,122.90
2022-12-23T12:31:13.339Z,119.60
2022-12-23T12:32:13.273Z,121.30
2022-12-23T12:33:13.284Z,124.30
2022-12-23T12:34:13.216Z,117.70
2022-12-23T12:35:13.263Z,112.70
2022-12-23T12:36:13.238Z,112.10
2022-12-23T12:37:13.251Z,114.00
2022-12-23T12:38:13.210Z,117.50
2022-12-23T12:39:13.178Z,118.10
2022-12-23T12:40:13.168Z,120.50
2022-12-23T12:41:13.182Z,121.60
2022-12-23T12:42:13.106Z,122.10
2022-12-23T12:43:13.177Z,127.50
2022-12-23T12:44:13.082Z,125.50
2022-12-23T12:45:13.106Z,128.70
2022-12-23T12:46:13.139Z,130.80
2022-12-23T12:47:36.188Z,128.20
2022-12-23T12:48:18.801Z,131.50
2022-12-23T12:49:14.087Z,137.50
2022-12-23T12:50:13.056Z,138.90
2022-12-23T12:51:13.041Z,131.30
2022-12-23T12:52:12.973Z,138.00
2022-12-23T12:53:13.009Z,137.30
2022-12-23T12:54:13.085Z,132.30
2022-12-23T12:55:12.989Z,129.60
2022-12-23T12:56:12.922Z,127.60
2022-12-23T12:57:12.939Z,134.60
2022-12-23T12:58:12.939Z,135.90
2022-12-23T12:59:12.905Z,124.00
2022-12-23T13:00:12.946Z,128.40
2022-12-23T13:01:12.960Z,123.30
2022-12-23T13:02:12.882Z,115.90
2022-12-23T13:03:12.911Z,115.60
2022-12-23T13:04:12.813Z,113.10
2022-12-23T13:05:12.854Z,117.60
2022-12-23T13:06:12.849Z,120.70
2022-12-23T13:07:12.824Z,119.40
2022-12-23T13:08:12.790Z,116.50
2022-12-23T13:09:13.069Z,117.80
2022-12-23T13:10:12.743Z,121.70
2022-12-23T13:11:12.752Z,124.30
2022-12-23T13:12:12.763Z,123.40
2022-12-23T13:13:12.753Z,126.40
2022-12-23T13:14:12.691Z,125.50
2022-12-23T13:15:12.723Z,128.80
2022-12-23T13:16:12.677Z,126.60
2022-12-23T13:17:12.713Z,124.90
2022-12-23T13:18:12.826Z,124.90
2022-12-23T13:19:12.652Z,122.00
2022-12-23T13:20:12.635Z,121.20
2022-12-23T13:21:12.650Z,113.00
2022-12-23T13:22:12.568Z,117.40
2022-12-23T13:23:41.672Z,119.60
2022-12-23T13:24:13.577Z,113.40
2022-12-23T13:25:12.559Z,117.20
2022-12-23T13:26:12.553Z,125.80
2022-12-23T13:27:12.575Z,125.70
2022-12-23T13:28:12.499Z,130.10
2022-12-23T13:30:23.569Z,151.20
2022-12-23T13:31:23.579Z,168.40
2022-12-23T13:32:23.511Z,212.40
2022-12-23T13:33:23.521Z,188.90
2022-12-23T13:34:23.452Z,109.10
2022-12-23T13:35:23.417Z,112.90
2022-12-23T13:36:23.599Z,119.40
2022-12-23T13:37:23.420Z,116.10
2022-12-23T13:38:23.402Z,112.60
2022-12-23T13:39:23.400Z,110.60
2022-12-23T13:40:23.373Z,108.90
2022-12-23T13:41:23.332Z,110.40
2022-12-23T13:42:23.488Z,110.90
2022-12-23T13:43:23.322Z,112.50
2022-12-23T13:44:26.043Z,115.90
2022-12-23T13:45:30.127Z,105.50
2022-12-23T13:46:29.266Z,99.70
2022-12-23T13:47:27.073Z,103.20
2022-12-23T13:48:25.611Z,101.30
2022-12-23T13:49:23.686Z,99.70
2022-12-23T13:50:26.695Z,98.50
2022-12-23T13:51:31.688Z,100.50
2022-12-23T13:52:24.401Z,92.70
2022-12-23T13:53:26.906Z,94.40
2022-12-23T13:54:27.327Z,96.70